sensor_id;sensor_type;location;lat;lon;timestamp;pressure;altitude;pressure_sealevel;temperature;humidity
63447;BME280;49577;49.872;6.190;2023-04-09T00:00:07;100268.17;;;4.60;72.50
63447;BME280;49577;49.872;6.190;2023-04-09T00:02:34;100271.02;;;4.57;72.49
63447;BME280;49577;49.872;6.190;2023-04-09T00:05:00;100269.84;;;4.55;72.69
63447;BME280;49577;49.872;6.190;2023-04-09T00:07:25;100268.23;;;4.51;72.70
63447;BME280;49577;49.872;6.190;2023-04-09T00:09:51;100267.25;;;4.48;72.72
63447;BME280;49577;49.872;6.190;2023-04-09T00:12:16;100263.52;;;4.45;72.86
63447;BME280;49577;49.872;6.190;2023-04-09T00:14:41;100261.02;;;4.42;72.94
63447;BME280;49577;49.872;6.190;2023-04-09T00:17:07;100261.13;;;4.39;73.07
63447;BME280;49577;49.872;6.190;2023-04-09T00:19:32;100260.03;;;4.35;73.10
63447;BME280;49577;49.872;6.190;2023-04-09T00:21:57;100258.09;;;4.29;73.07
63447;BME280;49577;49.872;6.190;2023-04-09T00:24:23;100261.19;;;4.23;73.24
63447;BME280;49577;49.872;6.190;2023-04-09T00:26:48;100254.08;;;4.17;73.36
63447;BME280;49577;49.872;6.190;2023-04-09T00:29:13;100254.05;;;4.12;73.46
63447;BME280;49577;49.872;6.190;2023-04-09T00:31:38;100256.11;;;4.05;73.49
63447;BME280;49577;49.872;6.190;2023-04-09T00:34:04;100256.06;;;4.01;73.66
63447;BME280;49577;49.872;6.190;2023-04-09T00:36:30;100259.80;;;3.97;73.90
63447;BME280;49577;49.872;6.190;2023-04-09T00:38:55;100261.80;;;3.93;74.12
63447;BME280;49577;49.872;6.190;2023-04-09T00:41:20;100264.69;;;3.88;74.10
63447;BME280;49577;49.872;6.190;2023-04-09T00:43:46;100263.02;;;3.86;74.41
63447;BME280;49577;49.872;6.190;2023-04-09T00:46:11;100262.16;;;3.85;74.72
63447;BME280;49577;49.872;6.190;2023-04-09T00:48:36;100262.17;;;3.85;74.86
63447;BME280;49577;49.872;6.190;2023-04-09T00:51:02;100261.95;;;3.87;74.96
63447;BME280;49577;49.872;6.190;2023-04-09T00:53:27;100260.50;;;3.90;75.02
63447;BME280;49577;49.872;6.190;2023-04-09T00:55:54;100263.53;;;3.92;74.93
63447;BME280;49577;49.872;6.190;2023-04-09T00:58:19;100267.11;;;3.95;74.90
63447;BME280;49577;49.872;6.190;2023-04-09T01:00:45;100268.64;;;3.96;75.00
63447;BME280;49577;49.872;6.190;2023-04-09T01:03:10;100266.23;;;3.96;75.16
63447;BME280;49577;49.872;6.190;2023-04-09T01:08:40;100263.02;;;3.92;75.20
63447;BME280;49577;49.872;6.190;2023-04-09T01:11:19;100263.84;;;3.95;75.45
63447;BME280;49577;49.872;6.190;2023-04-09T01:13:54;100257.52;;;3.98;75.50
63447;BME280;49577;49.872;6.190;2023-04-09T01:16:23;100258.64;;;4.01;75.37
63447;BME280;49577;49.872;6.190;2023-04-09T01:18:58;100253.97;;;4.02;75.25
63447;BME280;49577;49.872;6.190;2023-04-09T01:21:29;100251.35;;;4.03;75.32
63447;BME280;49577;49.872;6.190;2023-04-09T01:29:06;100242.61;;;4.06;75.41
63447;BME280;49577;49.872;6.190;2023-04-09T01:31:33;100244.09;;;4.03;75.68
63447;BME280;49577;49.872;6.190;2023-04-09T01:34:01;100245.90;;;3.99;75.96
63447;BME280;49577;49.872;6.190;2023-04-09T01:36:29;100245.81;;;3.96;76.12
63447;BME280;49577;49.872;6.190;2023-04-09T01:38:56;100244.31;;;3.94;76.14
63447;BME280;49577;49.872;6.190;2023-04-09T01:41:22;100245.73;;;3.92;76.31
63447;BME280;49577;49.872;6.190;2023-04-09T01:43:49;100241.80;;;3.91;76.37
63447;BME280;49577;49.872;6.190;2023-04-09T01:46:17;100244.09;;;3.90;76.47
63447;BME280;49577;49.872;6.190;2023-04-09T01:48:43;100243.77;;;3.88;76.44
63447;BME280;49577;49.872;6.190;2023-04-09T01:51:09;100245.05;;;3.85;76.56
63447;BME280;49577;49.872;6.190;2023-04-09T01:53:35;100246.20;;;3.81;76.66
63447;BME280;49577;49.872;6.190;2023-04-09T01:56:00;100247.02;;;3.75;76.53
63447;BME280;49577;49.872;6.190;2023-04-09T01:58:25;100248.55;;;3.69;76.62
63447;BME280;49577;49.872;6.190;2023-04-09T02:00:55;100249.74;;;3.63;76.74
63447;BME280;49577;49.872;6.190;2023-04-09T02:03:26;100247.94;;;3.59;76.80
63447;BME280;49577;49.872;6.190;2023-04-09T02:06:03;100247.69;;;3.55;77.07
63447;BME280;49577;49.872;6.190;2023-04-09T02:08:33;100249.34;;;3.51;77.15
63447;BME280;49577;49.872;6.190;2023-04-09T02:10:59;100249.14;;;3.45;77.16
63447;BME280;49577;49.872;6.190;2023-04-09T02:13:30;100250.02;;;3.36;77.07
63447;BME280;49577;49.872;6.190;2023-04-09T02:15:57;100246.73;;;3.30;77.42
63447;BME280;49577;49.872;6.190;2023-04-09T02:18:28;100244.09;;;3.24;77.58
63447;BME280;49577;49.872;6.190;2023-04-09T02:20:57;100245.16;;;3.22;77.90
63447;BME280;49577;49.872;6.190;2023-04-09T02:23:24;100242.88;;;3.24;78.08
63447;BME280;49577;49.872;6.190;2023-04-09T02:25:51;100238.41;;;3.23;77.79
63447;BME280;49577;49.872;6.190;2023-04-09T02:28:17;100237.45;;;3.20;77.74
63447;BME280;49577;49.872;6.190;2023-04-09T02:30:42;100235.56;;;3.11;77.56
63447;BME280;49577;49.872;6.190;2023-04-09T02:33:07;100238.77;;;3.07;77.94
63447;BME280;49577;49.872;6.190;2023-04-09T02:35:33;100237.08;;;3.06;78.04
63447;BME280;49577;49.872;6.190;2023-04-09T02:37:58;100238.70;;;3.02;77.90
63447;BME280;49577;49.872;6.190;2023-04-09T02:40:24;100240.70;;;2.97;77.92
63447;BME280;49577;49.872;6.190;2023-04-09T02:42:51;100238.20;;;2.94;78.16
63447;BME280;49577;49.872;6.190;2023-04-09T02:45:16;100240.31;;;2.91;78.21
63447;BME280;49577;49.872;6.190;2023-04-09T02:47:42;100237.28;;;2.88;78.25
63447;BME280;49577;49.872;6.190;2023-04-09T02:50:07;100237.49;;;2.86;78.44
63447;BME280;49577;49.872;6.190;2023-04-09T02:52:32;100234.56;;;2.86;78.62
63447;BME280;49577;49.872;6.190;2023-04-09T02:54:58;100238.53;;;2.87;78.78
63447;BME280;49577;49.872;6.190;2023-04-09T02:57:23;100237.86;;;2.85;78.59
63447;BME280;49577;49.872;6.190;2023-04-09T02:59:48;100235.38;;;2.81;78.35
63447;BME280;49577;49.872;6.190;2023-04-09T03:02:13;100230.98;;;2.75;78.55
63447;BME280;49577;49.872;6.190;2023-04-09T03:04:39;100230.17;;;2.73;79.02
63447;BME280;49577;49.872;6.190;2023-04-09T03:07:04;100228.13;;;2.72;79.02
63447;BME280;49577;49.872;6.190;2023-04-09T03:09:30;100226.80;;;2.70;78.83
63447;BME280;49577;49.872;6.190;2023-04-09T03:11:56;100224.94;;;2.67;78.96
63447;BME280;49577;49.872;6.190;2023-04-09T03:14:22;100227.44;;;2.64;78.68
63447;BME280;49577;49.872;6.190;2023-04-09T03:16:47;100226.69;;;2.58;78.53
63447;BME280;49577;49.872;6.190;2023-04-09T03:19:13;100225.82;;;2.49;78.54
63447;BME280;49577;49.872;6.190;2023-04-09T03:21:38;100229.28;;;2.40;78.67
63447;BME280;49577;49.872;6.190;2023-04-09T03:24:03;100227.50;;;2.34;79.03
63447;BME280;49577;49.872;6.190;2023-04-09T03:26:29;100222.20;;;2.31;79.26
63447;BME280;49577;49.872;6.190;2023-04-09T03:29:00;100220.86;;;2.30;79.28
63447;BME280;49577;49.872;6.190;2023-04-09T03:31:25;100218.94;;;2.31;79.37
63447;BME280;49577;49.872;6.190;2023-04-09T03:33:51;100218.58;;;2.32;79.38
63447;BME280;49577;49.872;6.190;2023-04-09T03:36:16;100217.20;;;2.32;79.24
63447;BME280;49577;49.872;6.190;2023-04-09T03:38:41;100221.58;;;2.28;79.06
63447;BME280;49577;49.872;6.190;2023-04-09T03:41:06;100222.38;;;2.22;78.79
63447;BME280;49577;49.872;6.190;2023-04-09T03:43:32;100224.07;;;2.15;78.79
63447;BME280;49577;49.872;6.190;2023-04-09T03:45:57;100223.37;;;2.06;78.83
63447;BME280;49577;49.872;6.190;2023-04-09T03:48:22;100223.69;;;1.98;78.86
63447;BME280;49577;49.872;6.190;2023-04-09T03:50:48;100223.10;;;1.92;79.19
63447;BME280;49577;49.872;6.190;2023-04-09T03:53:13;100226.79;;;1.89;79.36
63447;BME280;49577;49.872;6.190;2023-04-09T03:55:38;100225.14;;;1.84;79.47
63447;BME280;49577;49.872;6.190;2023-04-09T03:58:03;100227.45;;;1.81;79.53
63447;BME280;49577;49.872;6.190;2023-04-09T04:00:29;100227.65;;;1.78;79.70
63447;BME280;49577;49.872;6.190;2023-04-09T04:02:54;100229.10;;;1.74;79.79
63447;BME280;49577;49.872;6.190;2023-04-09T04:05:22;100226.87;;;1.73;80.00
63447;BME280;49577;49.872;6.190;2023-04-09T04:07:49;100223.79;;;1.72;79.94
63447;BME280;49577;49.872;6.190;2023-04-09T04:10:15;100222.78;;;1.70;80.02
63447;BME280;49577;49.872;6.190;2023-04-09T04:12:40;100220.23;;;1.68;79.97
63447;BME280;49577;49.872;6.190;2023-04-09T04:15:06;100222.19;;;1.65;79.98
63447;BME280;49577;49.872;6.190;2023-04-09T04:17:31;100224.81;;;1.62;80.18
63447;BME280;49577;49.872;6.190;2023-04-09T04:19:56;100225.23;;;1.57;80.04
63447;BME280;49577;49.872;6.190;2023-04-09T04:22:22;100227.32;;;1.56;80.32
63447;BME280;49577;49.872;6.190;2023-04-09T04:24:47;100220.08;;;1.57;80.67
63447;BME280;49577;49.872;6.190;2023-04-09T04:27:12;100228.69;;;1.57;80.64
63447;BME280;49577;49.872;6.190;2023-04-09T04:29:37;100221.46;;;1.56;80.50
63447;BME280;49577;49.872;6.190;2023-04-09T04:32:03;100221.67;;;1.54;80.31
63447;BME280;49577;49.872;6.190;2023-04-09T04:34:28;100224.13;;;1.51;80.40
63447;BME280;49577;49.872;6.190;2023-04-09T04:36:53;100225.90;;;1.49;80.31
63447;BME280;49577;49.872;6.190;2023-04-09T04:39:19;100228.38;;;1.44;80.04
63447;BME280;49577;49.872;6.190;2023-04-09T04:41:44;100230.17;;;1.38;80.14
63447;BME280;49577;49.872;6.190;2023-04-09T04:44:09;100230.94;;;1.35;80.45
63447;BME280;49577;49.872;6.190;2023-04-09T04:46:35;100231.84;;;1.32;80.41
63447;BME280;49577;49.872;6.190;2023-04-09T04:49:00;100236.20;;;1.28;80.41
63447;BME280;49577;49.872;6.190;2023-04-09T04:51:25;100234.88;;;1.24;80.49
63447;BME280;49577;49.872;6.190;2023-04-09T04:53:51;100237.33;;;1.22;80.41
63447;BME280;49577;49.872;6.190;2023-04-09T04:56:17;100238.33;;;1.23;80.76
63447;BME280;49577;49.872;6.190;2023-04-09T04:58:42;100241.60;;;1.23;80.64
63447;BME280;49577;49.872;6.190;2023-04-09T05:01:07;100239.17;;;1.24;80.84
63447;BME280;49577;49.872;6.190;2023-04-09T05:03:33;100237.44;;;1.26;80.62
63447;BME280;49577;49.872;6.190;2023-04-09T05:05:58;100234.69;;;1.26;80.46
63447;BME280;49577;49.872;6.190;2023-04-09T05:08:23;100229.05;;;1.22;80.11
63447;BME280;49577;49.872;6.190;2023-04-09T05:10:49;100234.14;;;1.16;79.86
63447;BME280;49577;49.872;6.190;2023-04-09T05:13:15;100236.77;;;1.11;80.27
63447;BME280;49577;49.872;6.190;2023-04-09T05:15:40;100239.55;;;1.10;80.59
63447;BME280;49577;49.872;6.190;2023-04-09T05:18:06;100244.86;;;1.11;80.90
63447;BME280;49577;49.872;6.190;2023-04-09T05:20:32;100243.11;;;1.14;80.68
63447;BME280;49577;49.872;6.190;2023-04-09T05:22:58;100238.27;;;1.15;80.89
63447;BME280;49577;49.872;6.190;2023-04-09T05:25:23;100236.64;;;1.21;80.92
63447;BME280;49577;49.872;6.190;2023-04-09T05:27:48;100237.62;;;1.24;80.71
63447;BME280;49577;49.872;6.190;2023-04-09T05:30:14;100236.22;;;1.27;80.73
63447;BME280;49577;49.872;6.190;2023-04-09T05:32:40;100240.98;;;1.31;80.71
63447;BME280;49577;49.872;6.190;2023-04-09T05:35:06;100243.46;;;1.37;80.66
63447;BME280;49577;49.872;6.190;2023-04-09T05:37:31;100243.14;;;1.47;80.80
63447;BME280;49577;49.872;6.190;2023-04-09T05:39:56;100240.10;;;1.65;80.64
63447;BME280;49577;49.872;6.190;2023-04-09T05:42:22;100242.27;;;1.89;80.40
63447;BME280;49577;49.872;6.190;2023-04-09T05:44:47;100239.39;;;2.16;79.77
63447;BME280;49577;49.872;6.190;2023-04-09T05:47:12;100239.40;;;2.43;79.18
63447;BME280;49577;49.872;6.190;2023-04-09T05:49:38;100235.55;;;2.62;78.63
63447;BME280;49577;49.872;6.190;2023-04-09T05:52:03;100238.12;;;2.90;78.21
63447;BME280;49577;49.872;6.190;2023-04-09T05:54:30;100244.42;;;3.01;77.64
63447;BME280;49577;49.872;6.190;2023-04-09T05:56:55;100246.98;;;3.18;77.52
63447;BME280;49577;49.872;6.190;2023-04-09T05:59:21;100245.30;;;3.47;77.19
63447;BME280;49577;49.872;6.190;2023-04-09T06:01:46;100245.44;;;3.76;76.55
63447;BME280;49577;49.872;6.190;2023-04-09T06:04:12;100242.94;;;3.94;75.80
63447;BME280;49577;49.872;6.190;2023-04-09T06:06:37;100239.30;;;3.94;75.33
63447;BME280;49577;49.872;6.190;2023-04-09T06:09:03;100243.51;;;4.24;75.16
63447;BME280;49577;49.872;6.190;2023-04-09T06:11:30;100243.04;;;4.73;74.35
63447;BME280;49577;49.872;6.190;2023-04-09T06:13:56;100241.98;;;5.26;73.48
63447;BME280;49577;49.872;6.190;2023-04-09T06:16:21;100242.79;;;5.61;72.33
63447;BME280;49577;49.872;6.190;2023-04-09T06:18:47;100238.40;;;5.95;71.59
63447;BME280;49577;49.872;6.190;2023-04-09T06:21:14;100239.01;;;6.18;70.70
63447;BME280;49577;49.872;6.190;2023-04-09T06:23:39;100240.85;;;6.68;70.20
63447;BME280;49577;49.872;6.190;2023-04-09T06:26:05;100240.98;;;7.38;68.37
63447;BME280;49577;49.872;6.190;2023-04-09T06:28:30;100238.38;;;8.06;67.48
63447;BME280;49577;49.872;6.190;2023-04-09T06:30:56;100236.52;;;8.84;66.25
63447;BME280;49577;49.872;6.190;2023-04-09T06:33:22;100236.98;;;9.64;63.92
63447;BME280;49577;49.872;6.190;2023-04-09T06:35:48;100236.48;;;10.36;62.02
63447;BME280;49577;49.872;6.190;2023-04-09T06:38:14;100239.10;;;10.96;60.10
63447;BME280;49577;49.872;6.190;2023-04-09T06:40:39;100238.58;;;11.46;58.18
63447;BME280;49577;49.872;6.190;2023-04-09T06:43:05;100234.83;;;12.00;56.98
63447;BME280;49577;49.872;6.190;2023-04-09T06:45:31;100232.73;;;12.56;55.46
63447;BME280;49577;49.872;6.190;2023-04-09T06:47:58;100234.41;;;13.08;53.91
63447;BME280;49577;49.872;6.190;2023-04-09T06:50:23;100231.77;;;13.52;52.23
63447;BME280;49577;49.872;6.190;2023-04-09T06:52:50;100233.98;;;13.96;51.36
63447;BME280;49577;49.872;6.190;2023-04-09T06:55:15;100237.00;;;14.35;50.37
63447;BME280;49577;49.872;6.190;2023-04-09T06:57:41;100235.35;;;14.79;49.20
63447;BME280;49577;49.872;6.190;2023-04-09T07:00:07;100237.02;;;15.42;49.05
63447;BME280;49577;49.872;6.190;2023-04-09T07:02:32;100237.61;;;16.14;47.78
63447;BME280;49577;49.872;6.190;2023-04-09T07:04:58;100234.26;;;16.81;46.52
63447;BME280;49577;49.872;6.190;2023-04-09T07:07:23;100236.41;;;17.51;45.14
63447;BME280;49577;49.872;6.190;2023-04-09T07:09:49;100239.46;;;18.04;43.98
63447;BME280;49577;49.872;6.190;2023-04-09T07:12:31;100240.27;;;18.40;42.80
63447;BME280;49577;49.872;6.190;2023-04-09T07:15:04;100235.40;;;18.66;41.70
63447;BME280;49577;49.872;6.190;2023-04-09T07:17:30;100239.14;;;18.91;41.10
63447;BME280;49577;49.872;6.190;2023-04-09T07:19:56;100237.60;;;19.04;40.05
63447;BME280;49577;49.872;6.190;2023-04-09T07:22:22;100238.82;;;19.07;39.10
63447;BME280;49577;49.872;6.190;2023-04-09T07:24:48;100237.91;;;19.11;38.93
63447;BME280;49577;49.872;6.190;2023-04-09T07:27:24;100241.77;;;19.63;38.90
63447;BME280;49577;49.872;6.190;2023-04-09T07:29:52;100242.59;;;20.25;38.06
63447;BME280;49577;49.872;6.190;2023-04-09T07:32:18;100242.26;;;20.82;37.43
63447;BME280;49577;49.872;6.190;2023-04-09T07:34:43;100240.27;;;21.37;36.70
63447;BME280;49577;49.872;6.190;2023-04-09T07:37:08;100242.85;;;21.88;35.99
63447;BME280;49577;49.872;6.190;2023-04-09T07:39:34;100246.80;;;22.20;35.19
63447;BME280;49577;49.872;6.190;2023-04-09T07:42:03;100249.55;;;22.51;34.77
63447;BME280;49577;49.872;6.190;2023-04-09T07:44:29;100248.23;;;22.91;34.14
63447;BME280;49577;49.872;6.190;2023-04-09T07:46:57;100248.72;;;23.15;33.56
63447;BME280;49577;49.872;6.190;2023-04-09T07:49:23;100246.21;;;23.35;32.99
63447;BME280;49577;49.872;6.190;2023-04-09T07:51:48;100245.49;;;23.42;32.29
63447;BME280;49577;49.872;6.190;2023-04-09T07:54:13;100243.23;;;23.47;32.30
63447;BME280;49577;49.872;6.190;2023-04-09T07:56:38;100241.91;;;23.81;32.09
63447;BME280;49577;49.872;6.190;2023-04-09T07:59:04;100247.98;;;24.16;31.52
63447;BME280;49577;49.872;6.190;2023-04-09T08:01:29;100244.20;;;24.41;31.25
63447;BME280;49577;49.872;6.190;2023-04-09T08:03:55;100243.59;;;24.76;30.71
63447;BME280;49577;49.872;6.190;2023-04-09T08:06:21;100244.20;;;24.94;30.41
63447;BME280;49577;49.872;6.190;2023-04-09T08:08:46;100242.86;;;25.15;29.89
63447;BME280;49577;49.872;6.190;2023-04-09T08:11:11;100240.32;;;25.20;29.81
63447;BME280;49577;49.872;6.190;2023-04-09T08:13:36;100244.24;;;24.78;29.71
63447;BME280;49577;49.872;6.190;2023-04-09T08:16:02;100246.35;;;24.41;29.72
63447;BME280;49577;49.872;6.190;2023-04-09T08:18:28;100246.31;;;24.24;30.36
63447;BME280;49577;49.872;6.190;2023-04-09T08:20:54;100240.36;;;24.79;29.92
63447;BME280;49577;49.872;6.190;2023-04-09T08:23:19;100238.35;;;25.17;29.66
63447;BME280;49577;49.872;6.190;2023-04-09T08:25:45;100237.39;;;25.74;28.57
63447;BME280;49577;49.872;6.190;2023-04-09T08:28:10;100237.27;;;26.36;27.96
63447;BME280;49577;49.872;6.190;2023-04-09T08:30:35;100236.89;;;26.66;26.96
63447;BME280;49577;49.872;6.190;2023-04-09T08:33:01;100235.16;;;26.78;26.23
63447;BME280;49577;49.872;6.190;2023-04-09T08:35:29;100233.88;;;26.92;26.16
63447;BME280;49577;49.872;6.190;2023-04-09T08:37:55;100234.52;;;27.17;25.40
63447;BME280;49577;49.872;6.190;2023-04-09T08:40:21;100232.15;;;27.13;25.05
63447;BME280;49577;49.872;6.190;2023-04-09T08:42:52;100232.73;;;27.13;25.33
63447;BME280;49577;49.872;6.190;2023-04-09T08:45:18;100230.52;;;27.43;24.98
63447;BME280;49577;49.872;6.190;2023-04-09T08:47:43;100233.30;;;27.65;24.74
63447;BME280;49577;49.872;6.190;2023-04-09T08:50:09;100230.73;;;27.77;24.36
63447;BME280;49577;49.872;6.190;2023-04-09T08:52:35;100226.20;;;27.82;24.43
63447;BME280;49577;49.872;6.190;2023-04-09T08:55:01;100221.46;;;27.89;24.12
63447;BME280;49577;49.872;6.190;2023-04-09T08:57:26;100218.54;;;27.73;23.76
63447;BME280;49577;49.872;6.190;2023-04-09T08:59:52;100217.92;;;27.43;23.77
63447;BME280;49577;49.872;6.190;2023-04-09T09:02:17;100214.65;;;27.39;24.15
63447;BME280;49577;49.872;6.190;2023-04-09T09:04:47;100214.45;;;27.48;23.93
63447;BME280;49577;49.872;6.190;2023-04-09T09:07:13;100208.73;;;27.65;23.60
63447;BME280;49577;49.872;6.190;2023-04-09T09:09:52;100206.20;;;27.35;23.83
63447;BME280;49577;49.872;6.190;2023-04-09T09:12:39;100206.01;;;27.15;23.69
63447;BME280;49577;49.872;6.190;2023-04-09T09:15:24;100203.71;;;27.01;24.04
63447;BME280;49577;49.872;6.190;2023-04-09T09:17:57;100202.77;;;26.85;23.77
63447;BME280;49577;49.872;6.190;2023-04-09T09:20:23;100202.12;;;26.79;24.20
63447;BME280;49577;49.872;6.190;2023-04-09T09:22:51;100203.25;;;27.27;23.81
63447;BME280;49577;49.872;6.190;2023-04-09T09:25:16;100203.19;;;27.66;23.42
63447;BME280;49577;49.872;6.190;2023-04-09T09:27:42;100203.32;;;27.75;23.01
63447;BME280;49577;49.872;6.190;2023-04-09T09:30:08;100203.70;;;27.85;23.08
63447;BME280;49577;49.872;6.190;2023-04-09T09:32:44;100200.77;;;28.19;22.69
63447;BME280;49577;49.872;6.190;2023-04-09T09:35:09;100202.77;;;28.40;22.47
63447;BME280;49577;49.872;6.190;2023-04-09T09:37:35;100203.21;;;28.65;21.45
63447;BME280;49577;49.872;6.190;2023-04-09T09:40:00;100202.80;;;28.00;21.40
63447;BME280;49577;49.872;6.190;2023-04-09T09:42:26;100200.34;;;26.52;22.99
63447;BME280;49577;49.872;6.190;2023-04-09T09:44:54;100198.69;;;25.28;24.11
63447;BME280;49577;49.872;6.190;2023-04-09T09:47:21;100197.60;;;24.92;24.12
63447;BME280;49577;49.872;6.190;2023-04-09T09:49:50;100200.15;;;24.39;25.29
63447;BME280;49577;49.872;6.190;2023-04-09T09:52:25;100205.83;;;23.66;25.79
63447;BME280;49577;49.872;6.190;2023-04-09T09:54:54;100201.08;;;23.19;26.13
63447;BME280;49577;49.872;6.190;2023-04-09T09:57:24;100197.42;;;23.73;25.59
63447;BME280;49577;49.872;6.190;2023-04-09T09:59:53;100190.91;;;24.00;25.37
63447;BME280;49577;49.872;6.190;2023-04-09T10:02:22;100194.05;;;23.28;25.72
63447;BME280;49577;49.872;6.190;2023-04-09T10:04:49;100191.59;;;22.45;26.53
63447;BME280;49577;49.872;6.190;2023-04-09T10:07:17;100188.94;;;21.78;27.52
63447;BME280;49577;49.872;6.190;2023-04-09T10:09:48;100186.42;;;21.14;28.19
63447;BME280;49577;49.872;6.190;2023-04-09T10:12:14;100184.66;;;20.67;28.78
63447;BME280;49577;49.872;6.190;2023-04-09T10:14:41;100180.68;;;20.42;29.26
63447;BME280;49577;49.872;6.190;2023-04-09T10:17:06;100185.15;;;19.94;30.01
63447;BME280;49577;49.872;6.190;2023-04-09T10:19:37;100186.98;;;19.53;30.61
63447;BME280;49577;49.872;6.190;2023-04-09T10:22:08;100185.84;;;19.38;31.00
63447;BME280;49577;49.872;6.190;2023-04-09T10:24:35;100183.29;;;19.33;30.97
63447;BME280;49577;49.872;6.190;2023-04-09T10:27:11;100182.90;;;19.69;31.11
63447;BME280;49577;49.872;6.190;2023-04-09T10:29:44;100179.11;;;20.14;30.40
63447;BME280;49577;49.872;6.190;2023-04-09T10:32:10;100175.49;;;21.01;29.51
63447;BME280;49577;49.872;6.190;2023-04-09T10:34:38;100169.85;;;21.34;28.65
63447;BME280;49577;49.872;6.190;2023-04-09T10:37:06;100167.91;;;20.99;28.89
63447;BME280;49577;49.872;6.190;2023-04-09T10:39:32;100167.39;;;20.68;29.67
63447;BME280;49577;49.872;6.190;2023-04-09T10:42:07;100171.06;;;20.24;29.93
63447;BME280;49577;49.872;6.190;2023-04-09T10:44:33;100168.23;;;19.88;30.15
63447;BME280;49577;49.872;6.190;2023-04-09T10:47:02;100169.23;;;19.69;30.82
63447;BME280;49577;49.872;6.190;2023-04-09T10:49:35;100168.83;;;19.42;31.16
63447;BME280;49577;49.872;6.190;2023-04-09T10:52:02;100163.36;;;19.21;31.47
63447;BME280;49577;49.872;6.190;2023-04-09T10:57:18;100161.98;;;18.90;31.65
63447;BME280;49577;49.872;6.190;2023-04-09T10:59:54;100158.08;;;18.74;31.41
63447;BME280;49577;49.872;6.190;2023-04-09T11:05:21;100155.94;;;18.64;32.34
63447;BME280;49577;49.872;6.190;2023-04-09T11:07:53;100156.92;;;18.55;32.66
63447;BME280;49577;49.872;6.190;2023-04-09T11:10:21;100155.37;;;18.49;32.59
63447;BME280;49577;49.872;6.190;2023-04-09T11:12:47;100153.20;;;18.70;32.62
63447;BME280;49577;49.872;6.190;2023-04-09T11:15:18;100153.17;;;18.86;32.72
63447;BME280;49577;49.872;6.190;2023-04-09T11:17:45;100148.95;;;18.84;32.61
63447;BME280;49577;49.872;6.190;2023-04-09T11:20:12;100145.88;;;18.76;32.96
63447;BME280;49577;49.872;6.190;2023-04-09T11:22:38;100144.28;;;18.66;32.83
63447;BME280;49577;49.872;6.190;2023-04-09T11:25:04;100140.61;;;18.78;32.62
63447;BME280;49577;49.872;6.190;2023-04-09T11:27:29;100137.27;;;19.07;32.39
63447;BME280;49577;49.872;6.190;2023-04-09T11:29:55;100134.04;;;19.41;31.74
63447;BME280;49577;49.872;6.190;2023-04-09T11:32:20;100134.82;;;19.44;31.62
63447;BME280;49577;49.872;6.190;2023-04-09T11:34:46;100130.98;;;19.53;31.68
63447;BME280;49577;49.872;6.190;2023-04-09T11:37:15;100134.17;;;19.47;31.49
63447;BME280;49577;49.872;6.190;2023-04-09T11:39:43;100133.41;;;19.38;31.64
63447;BME280;49577;49.872;6.190;2023-04-09T11:42:13;100136.91;;;19.31;31.72
63447;BME280;49577;49.872;6.190;2023-04-09T11:44:39;100137.84;;;19.34;32.12
63447;BME280;49577;49.872;6.190;2023-04-09T11:47:05;100130.67;;;19.63;31.46
63447;BME280;49577;49.872;6.190;2023-04-09T11:49:31;100128.98;;;19.64;31.52
63447;BME280;49577;49.872;6.190;2023-04-09T11:51:57;100129.63;;;19.63;31.71
63447;BME280;49577;49.872;6.190;2023-04-09T11:54:22;100126.63;;;19.76;31.41
63447;BME280;49577;49.872;6.190;2023-04-09T11:56:48;100128.41;;;20.06;31.04
63447;BME280;49577;49.872;6.190;2023-04-09T11:59:20;100129.08;;;19.64;31.22
63447;BME280;49577;49.872;6.190;2023-04-09T12:01:48;100131.61;;;19.54;31.83
63447;BME280;49577;49.872;6.190;2023-04-09T12:04:21;100128.33;;;19.61;31.64
63447;BME280;49577;49.872;6.190;2023-04-09T12:06:46;100125.16;;;19.51;31.65
63447;BME280;49577;49.872;6.190;2023-04-09T12:09:12;100130.03;;;19.44;31.86
63447;BME280;49577;49.872;6.190;2023-04-09T12:11:38;100133.95;;;19.36;31.53
63447;BME280;49577;49.872;6.190;2023-04-09T12:14:11;100133.01;;;19.70;31.43
63447;BME280;49577;49.872;6.190;2023-04-09T12:16:37;100131.54;;;20.21;30.95
63447;BME280;49577;49.872;6.190;2023-04-09T12:19:06;100128.77;;;20.64;30.48
63447;BME280;49577;49.872;6.190;2023-04-09T12:24:11;100120.25;;;20.78;30.70
63447;BME280;49577;49.872;6.190;2023-04-09T12:26:36;100120.71;;;20.36;30.77
63447;BME280;49577;49.872;6.190;2023-04-09T12:29:01;100124.09;;;19.97;30.61
63447;BME280;49577;49.872;6.190;2023-04-09T12:31:26;100125.05;;;19.70;31.66
63447;BME280;49577;49.872;6.190;2023-04-09T12:33:52;100121.05;;;19.57;31.59
63447;BME280;49577;49.872;6.190;2023-04-09T12:36:17;100118.42;;;19.20;32.35
63447;BME280;49577;49.872;6.190;2023-04-09T12:38:42;100122.36;;;18.92;32.66
63447;BME280;49577;49.872;6.190;2023-04-09T12:41:07;100119.08;;;18.99;32.45
63447;BME280;49577;49.872;6.190;2023-04-09T12:43:33;100119.45;;;18.99;32.89
63447;BME280;49577;49.872;6.190;2023-04-09T12:45:58;100120.16;;;19.09;33.03
63447;BME280;49577;49.872;6.190;2023-04-09T12:48:24;100114.15;;;19.18;32.54
63447;BME280;49577;49.872;6.190;2023-04-09T12:50:49;100111.70;;;19.49;32.29
63447;BME280;49577;49.872;6.190;2023-04-09T12:53:15;100115.67;;;19.68;31.38
63447;BME280;49577;49.872;6.190;2023-04-09T12:55:40;100112.92;;;19.71;30.49
63447;BME280;49577;49.872;6.190;2023-04-09T12:58:05;100107.23;;;19.65;30.03
63447;BME280;49577;49.872;6.190;2023-04-09T13:00:31;100104.35;;;19.54;29.76
63447;BME280;49577;49.872;6.190;2023-04-09T13:02:57;100097.73;;;19.70;30.26
63447;BME280;49577;49.872;6.190;2023-04-09T13:05:22;100097.20;;;19.83;29.88
63447;BME280;49577;49.872;6.190;2023-04-09T13:07:48;100089.00;;;20.03;29.90